Creston, Ohio
Current Conditions -  °F | °C
As of 6:56 PM on Monday 20 Oct 2014 (Local Time) from KBJJ Reporting Station
Light Rain Light Rain  
Wind Chill: 53°   Ceiling: 4900
Heat Index: 53°   Visibility: 10mi
Dew Point: 49°   Wind: 8mph
Humidity: 86%   Direction: 230°SW
Pressure: 29.85"   Gusts: NA
Location:  40.99°N, 81.89°W
Report Text: KBJJ 202256Z AUTO 23007KT 10SM -RA FEW035 BKN049 OVC060 12/09 A2985 RMK AO2 RAE03B21E34B51 SLP112 P0000 T01170094 TSNO
Loading
Personal Weather Stations






























Interactive Weather Map
Tropical Storm Tracking
New forecast layout! Learn more

10-Day Weather Forecast

Advertisements
Track Severe Weather on mobile